Time;durP1;ratioP1;P1;durP2;ratioP2;P2;SDS_P1;SDS_P2;PMS_P1;PMS_P2;Temp;Humidity;BMP_temperature;BMP_pressure;BME280_temperature;BME280_humidity;BME280_pressure;Samples;Min_cycle;Max_cycle;Signal;HPM_P1;HPM_P2
2022/01/18 00:04:18;;;;;;;22.65;3.28;;;;;;;4.94;100.00;103256.66;10066921;28;20453;-66
2022/01/18 00:09:15;;;;;;;24.85;3.42;;;;;;;4.93;100.00;103263.13;10018867;28;20139;-66
2022/01/18 00:14:24;;;;;;;22.25;2.83;;;;;;;4.96;100.00;103268.13;10060041;28;20044;-66
2022/01/18 00:19:24;;;;;;;28.90;4.28;;;;;;;4.98;100.00;103276.88;10003043;29;20072;-66
2022/01/18 00:24:20;;;;;;;20.50;3.30;;;;;;;5.05;100.00;103283.91;10040697;28;20051;-66
2022/01/18 00:29:20;;;;;;;19.00;3.47;;;;;;;5.02;100.00;103286.25;10030015;29;20052;-66
2022/01/18 00:34:32;;;;;;;33.17;6.75;;;;;;;5.01;100.00;103289.97;9997166;29;20487;-67
2022/01/18 00:39:29;;;;;;;33.47;3.70;;;;;;;4.97;100.00;103303.16;10029657;29;20052;-66
2022/01/18 00:44:25;;;;;;;26.17;3.45;;;;;;;4.88;100.00;103303.63;10037920;28;20485;-66
2022/01/18 00:49:22;;;;;;;20.35;3.55;;;;;;;4.88;100.00;103309.06;10048841;28;20510;-66
2022/01/18 00:54:23;;;;;;;24.70;2.92;;;;;;;4.98;100.00;103314.81;10035410;28;20071;-66
2022/01/18 00:59:21;;;;;;;20.95;3.55;;;;;;;5.03;100.00;103312.28;10047729;28;20118;-66
2022/01/18 01:04:21;;;;;;;16.42;2.00;;;;;;;5.07;100.00;103318.94;10025026;28;20095;-66
2022/01/18 01:09:17;;;;;;;19.20;2.63;;;;;;;5.12;100.00;103316.41;10038698;28;20048;-66
2022/01/18 01:14:18;;;;;;;16.10;2.33;;;;;;;5.15;100.00;103315.13;10060767;28;20087;-66
2022/01/18 01:45:10;;;;;;;17.85;2.15;;;;;;;5.26;100.00;103323.41;10059287;28;20473;-68
2022/01/18 01:50:19;;;;;;;15.57;1.70;;;;;;;5.19;100.00;103322.63;10062027;29;20052;-67
2022/01/18 01:55:17;;;;;;;15.27;2.33;;;;;;;5.17;100.00;103319.28;10043418;28;20135;-66
2022/01/18 02:00:16;;;;;;;15.98;2.15;;;;;;;5.22;100.00;103321.34;10074013;28;20081;-66
2022/01/18 02:05:14;;;;;;;21.08;3.40;;;;;;;5.20;100.00;103332.44;10018813;29;20411;-66
2022/01/18 02:10:10;;;;;;;17.83;2.40;;;;;;;5.22;100.00;103338.50;10041684;28;20184;-66
2022/01/18 02:15:16;;;;;;;13.63;1.80;;;;;;;5.23;100.00;103334.72;10041258;28;20085;-67
2022/01/18 02:25:28;;;;;;;14.38;2.05;;;;;;;5.21;100.00;103336.81;10051242;29;20466;-68
2022/01/18 02:30:25;;;;;;;19.17;2.33;;;;;;;5.19;100.00;103332.66;10039340;29;20110;-68
2022/01/18 02:35:24;;;;;;;18.52;1.70;;;;;;;5.25;100.00;103343.47;10026632;28;20051;-68
2022/01/18 02:40:20;;;;;;;15.55;1.80;;;;;;;5.30;100.00;103340.09;10064131;29;20430;-65
2022/01/18 02:45:17;;;;;;;17.65;2.08;;;;;;;5.32;100.00;103338.00;10044075;28;20075;-65
2022/01/18 02:50:14;;;;;;;13.18;1.42;;;;;;;5.31;100.00;103336.31;10066880;28;20055;-66
2022/01/18 02:55:10;;;;;;;11.07;1.35;;;;;;;5.33;100.00;103339.66;10040616;28;20494;-66
2022/01/18 03:00:19;;;;;;;15.73;1.90;;;;;;;5.35;100.00;103328.59;10056505;29;20142;-66
2022/01/18 03:05:17;;;;;;;11.70;1.88;;;;;;;5.43;100.00;103336.47;10033693;28;20138;-66
2022/01/18 03:10:15;;;;;;;7.57;0.95;;;;;;;5.47;100.00;103343.13;10028268;28;20086;-66
2022/01/18 03:15:12;;;;;;;7.63;1.75;;;;;;;5.43;100.00;103344.59;10030817;28;20074;-66
2022/01/18 03:20:12;;;;;;;19.90;1.27;;;;;;;5.41;100.00;103346.72;10058627;29;20497;-66
2022/01/18 03:25:40;;;;;;;8.75;1.30;;;;;;;5.55;100.00;103342.88;10023330;28;20511;-67
2022/01/18 03:30:45;;;;;;;12.15;1.50;;;;;;;5.55;100.00;103342.88;10031791;29;20078;-66
2022/01/18 03:35:42;;;;;;;7.95;1.13;;;;;;;5.57;100.00;103350.78;10038655;28;20115;-67
2022/01/18 03:40:39;;;;;;;9.65;1.13;;;;;;;5.63;100.00;103361.59;10044205;29;20778;-67
2022/01/18 03:45:42;;;;;;;8.30;0.82;;;;;;;5.60;100.00;103356.59;10039174;28;20055;-67
2022/01/18 03:50:38;;;;;;;7.03;0.93;;;;;;;5.63;100.00;103366.19;10026567;29;20084;-68
2022/01/18 03:55:35;;;;;;;7.95;0.90;;;;;;;5.67;100.00;103357.38;10017787;29;20107;-69
2022/01/18 04:00:34;;;;;;;12.25;1.33;;;;;;;5.69;100.00;103366.16;10001693;29;20051;-68
2022/01/18 04:05:31;;;;;;;10.50;1.80;;;;;;;5.67;100.00;103367.41;10015742;28;20055;-68
2022/01/18 04:10:32;;;;;;;4.80;0.85;;;;;;;5.70;100.00;103367.78;10042115;28;20054;-68
2022/01/18 04:15:30;;;;;;;11.95;0.95;;;;;;;5.65;100.00;103364.91;10050429;28;20048;-67
2022/01/18 04:30:45;;;;;;;5.78;0.88;;;;;;;5.76;100.00;103381.56;10061673;28;20070;-67
2022/01/18 04:35:42;;;;;;;8.82;1.15;;;;;;;5.70;100.00;103378.66;10024548;28;20586;-68
2022/01/18 04:40:42;;;;;;;6.13;0.88;;;;;;;5.83;100.00;103387.78;10041101;29;20131;-68
2022/01/18 04:50:59;;;;;;;9.70;1.10;;;;;;;5.84;100.00;103384.81;10055000;28;20047;-66
2022/01/18 04:55:57;;;;;;;11.48;1.02;;;;;;;5.88;100.00;103390.66;10062872;28;20044;-66
2022/01/18 05:00:58;;;;;;;8.48;1.02;;;;;;;5.91;100.00;103396.47;10039700;28;20513;-66
2022/01/18 05:05:59;;;;;;;13.63;1.98;;;;;;;5.85;100.00;103396.53;10030881;28;20039;-66
2022/01/18 05:10:57;;;;;;;9.18;2.63;;;;;;;5.86;100.00;103392.75;10027495;29;20079;-66
2022/01/18 05:16:07;;;;;;;7.80;1.25;;;;;;;5.75;100.00;103412.47;10018250;29;20049;-67
2022/01/18 05:21:18;;;;;;;9.93;1.50;;;;;;;5.74;100.00;103422.50;10014230;28;20127;-67
2022/01/18 05:26:18;;;;;;;9.30;1.50;;;;;;;5.66;100.00;103423.59;10020041;29;20060;-67
2022/01/18 05:31:15;;;;;;;10.82;1.27;;;;;;;5.55;100.00;103429.72;10017267;29;20072;-67
2022/01/18 05:36:13;;;;;;;10.23;1.10;;;;;;;5.56;100.00;103434.06;10030932;29;20059;-68
2022/01/18 05:41:11;;;;;;;10.57;2.28;;;;;;;5.45;100.00;103434.75;10029265;29;20072;-66
2022/01/18 05:46:08;;;;;;;9.73;1.10;;;;;;;5.48;100.00;103439.78;10017450;29;20050;-66
2022/01/18 05:51:05;;;;;;;10.80;1.75;;;;;;;5.57;100.00;103435.75;10034953;28;20048;-68
2022/01/18 05:56:03;;;;;;;13.07;2.10;;;;;;;5.53;100.00;103442.66;10007585;29;20059;-67
2022/01/18 06:01:01;;;;;;;10.70;2.40;;;;;;;5.63;100.00;103436.75;10027023;29;20046;-65
2022/01/18 06:11:13;;;;;;;13.10;2.58;;;;;;;5.52;100.00;103449.13;10014572;29;20044;-66
2022/01/18 06:16:09;;;;;;;11.55;2.40;;;;;;;5.62;100.00;103452.22;10034488;29;20047;-66
2022/01/18 06:21:06;;;;;;;14.38;3.67;;;;;;;5.54;100.00;103454.34;10040404;28;20064;-68
2022/01/18 06:26:03;;;;;;;20.92;4.05;;;;;;;5.69;100.00;103458.44;10035940;28;20044;-68
2022/01/18 06:31:00;;;;;;;23.95;4.68;;;;;;;5.75;100.00;103467.59;10033792;28;20047;-68
2022/01/18 06:35:56;;;;;;;28.77;5.20;;;;;;;5.76;100.00;103469.25;10048426;28;20055;-68
2022/01/18 06:40:53;;;;;;;16.35;4.38;;;;;;;5.76;100.00;103465.72;10003754;29;20052;-68
2022/01/18 06:45:50;;;;;;;42.45;6.40;;;;;;;5.81;100.00;103460.47;10033160;28;20506;-68
2022/01/18 06:50:46;;;;;;;30.42;5.13;;;;;;;5.77;100.00;103464.66;10074401;28;20051;-69
2022/01/18 06:55:43;;;;;;;26.08;5.93;;;;;;;5.76;100.00;103484.72;10030380;28;20131;-68
2022/01/18 07:00:39;;;;;;;28.52;5.47;;;;;;;5.66;100.00;103480.59;10056566;29;20052;-69
2022/01/18 07:05:37;;;;;;;28.20;6.20;;;;;;;5.73;100.00;103483.25;10031816;29;20051;-68
2022/01/18 07:10:34;;;;;;;32.08;7.30;;;;;;;5.67;100.00;103484.97;10040308;28;20047;-68
2022/01/18 07:15:31;;;;;;;27.70;6.93;;;;;;;5.73;100.00;103490.56;10033785;28;20075;-68
2022/01/18 07:20:28;;;;;;;30.45;6.63;;;;;;;5.75;100.00;103496.63;10040659;28;20454;-68
2022/01/18 07:25:26;;;;;;;34.58;7.18;;;;;;;5.74;100.00;103503.94;10022037;28;20106;-68
2022/01/18 07:30:22;;;;;;;35.45;6.90;;;;;;;5.78;100.00;103512.47;10045850;29;20071;-70
2022/01/18 07:35:22;;;;;;;28.60;6.22;;;;;;;5.74;100.00;103513.97;10014055;29;20115;-69
2022/01/18 07:40:18;;;;;;;35.20;7.65;;;;;;;5.86;100.00;103506.78;10014575;29;20071;-69
2022/01/18 07:45:15;;;;;;;30.90;5.55;;;;;;;5.86;100.00;103512.22;10004526;29;20534;-70
2022/01/18 07:50:11;;;;;;;51.20;6.68;;;;;;;5.92;100.00;103516.81;10017482;29;20502;-69
2022/01/18 07:55:09;;;;;;;30.15;5.85;;;;;;;5.94;100.00;103506.59;10006579;29;20043;-68
2022/01/18 08:00:06;;;;;;;38.63;5.85;;;;;;;5.94;100.00;103498.44;10014795;29;20136;-68
2022/01/18 08:05:04;;;;;;;29.45;4.63;;;;;;;5.98;100.00;103515.94;10015916;29;20494;-68
2022/01/18 08:10:03;;;;;;;37.25;4.85;;;;;;;5.95;100.00;103516.38;10017861;29;20119;-69
2022/01/18 08:15:13;;;;;;;30.17;4.00;;;;;;;6.08;100.00;103513.59;10008720;29;20064;-69
2022/01/18 08:20:21;;;;;;;25.95;3.90;;;;;;;6.11;100.00;103526.72;10007550;28;20099;-69
2022/01/18 08:25:17;;;;;;;33.67;5.43;;;;;;;6.08;100.00;103527.19;10010878;29;20580;-69
2022/01/18 08:30:19;;;;;;;36.63;5.35;;;;;;;6.09;100.00;103534.25;10014818;29;20116;-69
2022/01/18 08:35:17;;;;;;;36.58;7.28;;;;;;;6.14;100.00;103546.38;10023824;28;20138;-68
2022/01/18 08:40:14;;;;;;;37.38;5.97;;;;;;;6.16;100.00;103546.97;10040073;28;20111;-69
2022/01/18 08:45:11;;;;;;;33.10;6.45;;;;;;;6.23;100.00;103545.88;10023712;29;20095;-68
2022/01/18 08:50:18;;;;;;;35.92;6.28;;;;;;;6.28;100.00;103556.09;10047123;28;20497;-69
2022/01/18 08:55:17;;;;;;;30.52;4.55;;;;;;;6.23;100.00;103550.47;10047144;29;20056;-69
2022/01/18 09:00:16;;;;;;;32.17;4.75;;;;;;;6.30;100.00;103564.84;10033797;29;20048;-69
2022/01/18 09:05:13;;;;;;;27.50;3.67;;;;;;;6.24;100.00;103563.00;10019669;29;20147;-68
2022/01/18 09:10:11;;;;;;;35.15;4.95;;;;;;;6.39;100.00;103555.38;10024135;29;20476;-69
2022/01/18 09:15:10;;;;;;;24.75;4.15;;;;;;;6.31;100.00;103558.34;10022814;29;20047;-69
2022/01/18 09:20:09;;;;;;;26.60;4.45;;;;;;;6.32;100.00;103554.59;10035810;28;20071;-68
2022/01/18 09:25:10;;;;;;;31.23;3.60;;;;;;;6.33;100.00;103569.84;10015501;29;20083;-69
2022/01/18 09:30:07;;;;;;;26.67;3.88;;;;;;;6.43;100.00;103578.38;10020318;29;20471;-69
2022/01/18 09:35:06;;;;;;;35.95;4.78;;;;;;;6.45;100.00;103587.13;10027920;29;20392;-69
2022/01/18 09:40:05;;;;;;;26.40;4.38;;;;;;;6.49;100.00;103593.78;10049463;28;20059;-69
2022/01/18 09:45:05;;;;;;;21.58;4.13;;;;;;;6.53;100.00;103599.63;10019704;29;20083;-69
2022/01/18 09:50:04;;;;;;;22.48;3.70;;;;;;;6.48;100.00;103600.28;10009946;29;20064;-69
2022/01/18 09:55:01;;;;;;;28.60;3.45;;;;;;;6.51;100.00;103605.25;10037673;29;20072;-69
2022/01/18 09:59:59;;;;;;;30.55;3.72;;;;;;;6.56;100.00;103603.78;10028343;29;20088;-68
2022/01/18 10:04:58;;;;;;;31.55;4.05;;;;;;;6.58;100.00;103601.69;10033625;29;20098;-69
2022/01/18 10:10:00;;;;;;;23.77;4.50;;;;;;;6.63;100.00;103599.94;10037977;28;20098;-70
2022/01/18 10:14:58;;;;;;;29.35;4.70;;;;;;;6.64;100.00;103603.53;10064770;28;20055;-69
2022/01/18 10:20:10;;;;;;;25.15;3.92;;;;;;;6.70;100.00;103610.78;10021350;28;20106;-69
2022/01/18 10:25:27;;;;;;;25.08;3.10;;;;;;;6.70;100.00;103605.34;10012253;28;20079;-70
2022/01/18 10:30:39;;;;;;;22.77;3.35;;;;;;;6.67;100.00;103611.22;10032259;29;20047;-70
2022/01/18 10:35:35;;;;;;;23.33;3.40;;;;;;;6.66;100.00;103606.81;10014972;29;20068;-70
2022/01/18 10:40:33;;;;;;;23.50;2.78;;;;;;;6.80;100.00;103599.41;10032617;29;20070;-70
2022/01/18 10:45:33;;;;;;;22.58;3.70;;;;;;;6.89;100.00;103595.34;10013224;29;20111;-71
2022/01/18 10:50:33;;;;;;;23.13;3.83;;;;;;;6.87;100.00;103595.59;10017799;29;20135;-70
2022/01/18 10:55:30;;;;;;;25.85;3.53;;;;;;;6.94;100.00;103580.03;10019331;29;20114;-70
2022/01/18 11:00:29;;;;;;;27.10;2.97;;;;;;;6.70;100.00;103572.72;10014311;29;20051;-69
2022/01/18 11:05:27;;;;;;;15.18;2.92;;;;;;;6.71;100.00;103575.22;10035355;29;20499;-69
2022/01/18 11:10:30;;;;;;;15.60;2.08;;;;;;;6.68;100.00;103574.81;10028141;28;20442;-69
2022/01/18 11:15:43;;;;;;;15.38;2.30;;;;;;;6.73;100.00;103553.25;10011425;28;20059;-70
2022/01/18 11:20:44;;;;;;;16.30;2.25;;;;;;;6.85;100.00;103548.75;10014279;28;20052;-67
2022/01/18 11:25:42;;;;;;;16.40;1.70;;;;;;;6.94;100.00;103550.13;10009968;29;20459;-68
2022/01/18 11:30:41;;;;;;;16.45;1.98;;;;;;;6.90;100.00;103557.06;10022198;29;20059;-68
2022/01/18 11:35:58;;;;;;;10.65;1.63;;;;;;;6.92;100.00;103552.22;10015495;29;20055;-70
2022/01/18 11:40:57;;;;;;;12.73;2.47;;;;;;;6.84;100.00;103547.06;10027481;29;20524;-69
2022/01/18 11:45:54;;;;;;;13.23;2.90;;;;;;;6.81;100.00;103544.78;10020311;28;20043;-70
2022/01/18 11:51:06;;;;;;;11.07;2.03;;;;;;;6.74;100.00;103546.75;10027665;29;20078;-70
2022/01/18 11:56:03;;;;;;;13.20;1.90;;;;;;;6.79;100.00;103536.03;10007374;29;20564;-70
2022/01/18 12:01:02;;;;;;;9.65;1.67;;;;;;;6.80;100.00;103534.13;10006076;29;20649;-68
2022/01/18 12:06:01;;;;;;;11.23;1.85;;;;;;;6.91;100.00;103547.81;10006365;29;20131;-69
2022/01/18 12:10:59;;;;;;;12.55;1.73;;;;;;;6.88;100.00;103542.03;10005905;29;20112;-70
2022/01/18 12:16:03;;;;;;;14.03;2.10;;;;;;;6.82;100.00;103548.34;10003026;29;20043;-70
2022/01/18 12:21:05;;;;;;;6.93;1.77;;;;;;;6.75;100.00;103542.97;10016283;29;20054;-69
2022/01/18 12:31:23;;;;;;;10.05;2.00;;;;;;;6.82;100.00;103534.75;10026919;29;20538;-71
2022/01/18 12:36:28;;;;;;;7.45;1.50;;;;;;;6.84;100.00;103540.78;10013323;28;20055;-72
2022/01/18 12:41:45;;;;;;;10.77;1.60;;;;;;;6.75;100.00;103532.09;10018403;29;20084;-67
2022/01/18 12:46:52;;;;;;;10.00;1.15;;;;;;;6.71;100.00;103526.28;10021082;29;20052;-68
2022/01/18 12:51:57;;;;;;;10.07;1.52;;;;;;;6.69;100.00;103524.84;10023732;29;20054;-69
2022/01/18 12:56:53;;;;;;;8.40;1.25;;;;;;;6.65;100.00;103520.88;10024322;29;20048;-69
2022/01/18 13:01:54;;;;;;;7.22;1.60;;;;;;;6.81;100.00;103520.31;10026997;29;20052;-74
2022/01/18 13:06:51;;;;;;;8.93;1.50;;;;;;;6.59;100.00;103510.91;10011622;29;20055;-72
2022/01/18 13:11:48;;;;;;;11.88;1.83;;;;;;;6.45;100.00;103510.16;10033520;28;20083;-67
2022/01/18 13:27:48;;;;;;;13.23;2.30;;;;;;;6.31;100.00;103504.88;10017074;29;20426;-71
2022/01/18 13:32:45;;;;;;;9.13;1.60;;;;;;;6.26;100.00;103506.56;10015749;29;20561;-70
2022/01/18 13:37:42;;;;;;;10.23;1.50;;;;;;;6.22;100.00;103516.19;10014772;29;20094;-70
2022/01/18 13:42:41;;;;;;;7.90;2.10;;;;;;;6.30;100.00;103505.06;10035026;28;20104;-70
2022/01/18 13:48:08;;;;;;;8.38;2.25;;;;;;;6.29;100.00;103503.44;10023144;28;20048;-71
2022/01/18 13:53:34;;;;;;;5.28;1.70;;;;;;;6.29;100.00;103511.56;10030158;28;20473;-70
2022/01/18 13:58:37;;;;;;;5.90;1.52;;;;;;;6.33;100.00;103491.03;10045142;28;20047;-70
2022/01/18 14:03:39;;;;;;;4.28;1.27;;;;;;;6.30;100.00;103497.75;10041133;29;20141;-71
2022/01/18 14:08:52;;;;;;;6.68;1.52;;;;;;;6.27;100.00;103513.69;10041179;28;20142;-72
2022/01/18 14:13:51;;;;;;;3.90;1.53;;;;;;;6.23;100.00;103505.13;10012653;28;20048;-73
2022/01/18 14:18:54;;;;;;;5.80;2.00;;;;;;;6.15;100.00;103509.97;10028649;28;20052;-70
2022/01/18 14:24:18;;;;;;;4.97;1.38;;;;;;;6.21;100.00;103503.69;10020935;29;20052;-71
2022/01/18 14:29:15;;;;;;;7.63;2.03;;;;;;;6.14;100.00;103502.91;10016495;28;20183;-72
2022/01/18 14:34:33;;;;;;;4.68;1.40;;;;;;;6.03;100.00;103507.97;10007606;29;20127;-70
2022/01/18 14:40:00;;;;;;;6.00;2.15;;;;;;;5.98;100.00;103504.25;10013462;29;20503;-72
2022/01/18 14:50:02;;;;;;;5.80;2.70;;;;;;;6.09;100.00;103496.22;10010579;29;20056;-71
2022/01/18 14:54:59;;;;;;;7.72;2.42;;;;;;;6.18;100.00;103490.53;10021220;29;20079;-72
2022/01/18 14:59:55;;;;;;;7.00;2.53;;;;;;;6.23;100.00;103501.59;10017388;28;20044;-72
2022/01/18 15:04:52;;;;;;;8.00;3.05;;;;;;;6.22;100.00;103489.03;10011480;28;20487;-71
2022/01/18 15:09:48;;;;;;;10.20;4.22;;;;;;;6.08;100.00;103494.59;10013095;28;20107;-72
2022/01/18 15:14:47;;;;;;;10.10;2.75;;;;;;;6.18;100.00;103487.81;10010017;29;20421;-72
2022/01/18 15:19:45;;;;;;;12.13;3.47;;;;;;;6.10;100.00;103492.47;10015026;28;20507;-72
2022/01/18 15:24:41;;;;;;;7.50;2.88;;;;;;;6.11;100.00;103477.84;10031813;29;20079;-71
2022/01/18 15:29:38;;;;;;;7.68;3.25;;;;;;;6.13;100.00;103479.47;10034133;28;20090;-71
2022/01/18 15:34:35;;;;;;;7.20;2.95;;;;;;;5.96;100.00;103485.44;10052421;28;20055;-71
2022/01/18 15:39:34;;;;;;;8.18;2.90;;;;;;;6.04;100.00;103482.47;10018753;28;20093;-68
2022/01/18 15:44:30;;;;;;;7.75;3.00;;;;;;;5.99;100.00;103485.03;10009390;29;20470;-70
2022/01/18 15:49:27;;;;;;;7.40;3.22;;;;;;;5.93;100.00;103485.88;10007097;29;20048;-69
2022/01/18 15:54:23;;;;;;;7.90;3.35;;;;;;;5.85;100.00;103483.41;10011285;29;20082;-68
2022/01/18 15:59:26;;;;;;;8.10;2.75;;;;;;;5.87;100.00;103484.88;9999007;29;20673;-69
2022/01/18 16:04:24;;;;;;;6.88;2.83;;;;;;;5.98;100.00;103477.09;10001983;29;20055;-68
2022/01/18 16:09:20;;;;;;;6.78;3.03;;;;;;;6.00;100.00;103480.41;10016246;29;20147;-68
2022/01/18 16:14:17;;;;;;;7.47;3.40;;;;;;;6.02;100.00;103473.72;10017260;29;20502;-69
2022/01/18 16:19:14;;;;;;;8.77;3.92;;;;;;;6.08;100.00;103472.84;10036766;29;20079;-69
2022/01/18 16:24:11;;;;;;;7.63;3.65;;;;;;;5.95;100.00;103483.78;10036831;28;20079;-69
2022/01/18 16:29:10;;;;;;;6.35;3.72;;;;;;;5.95;100.00;103483.78;10045175;29;20506;-69
2022/01/18 16:34:07;;;;;;;7.80;3.83;;;;;;;5.98;100.00;103483.34;10019116;29;20048;-69
2022/01/18 16:39:04;;;;;;;10.20;3.95;;;;;;;6.03;100.00;103479.97;10020954;28;20131;-68
2022/01/18 16:44:01;;;;;;;8.65;5.45;;;;;;;6.00;100.00;103473.09;10016230;28;20115;-69
2022/01/18 16:48:57;;;;;;;11.30;5.80;;;;;;;5.90;100.00;103470.03;10020290;29;20043;-69
2022/01/18 16:53:54;;;;;;;10.73;5.25;;;;;;;5.89;100.00;103468.34;10015838;28;20624;-68
2022/01/18 16:58:51;;;;;;;8.38;4.57;;;;;;;5.93;100.00;103463.31;10027546;28;20131;-68
2022/01/18 17:03:48;;;;;;;10.10;4.72;;;;;;;5.88;100.00;103469.41;10023188;29;20542;-69
2022/01/18 17:08:45;;;;;;;7.03;4.22;;;;;;;5.82;100.00;103472.97;10025911;28;20465;-68
2022/01/18 17:13:42;;;;;;;6.78;3.67;;;;;;;5.70;100.00;103462.81;10030104;29;20056;-68
2022/01/18 17:18:38;;;;;;;10.23;3.60;;;;;;;5.78;100.00;103466.31;10011968;28;20036;-69
2022/01/18 17:23:37;;;;;;;6.78;3.40;;;;;;;5.73;100.00;103474.28;10008974;29;20150;-67
2022/01/18 17:28:34;;;;;;;8.48;3.30;;;;;;;5.65;100.00;103476.22;10025933;29;20048;-69
2022/01/18 17:33:33;;;;;;;9.88;4.00;;;;;;;5.67;100.00;103476.00;10018715;28;20609;-70
2022/01/18 17:38:30;;;;;;;9.85;3.88;;;;;;;5.76;100.00;103471.16;10018658;28;20051;-69
2022/01/18 17:43:27;;;;;;;10.90;4.50;;;;;;;5.69;100.00;103480.16;10017816;28;20067;-67
2022/01/18 17:48:24;;;;;;;9.32;4.80;;;;;;;5.76;100.00;103463.00;10022503;29;20048;-69
2022/01/18 17:53:20;;;;;;;10.18;5.10;;;;;;;5.77;100.00;103453.81;10017276;29;20048;-69
2022/01/18 17:58:21;;;;;;;11.80;5.20;;;;;;;5.74;100.00;103448.81;10021257;28;20055;-69
2022/01/18 18:03:19;;;;;;;8.93;5.15;;;;;;;5.69;100.00;103444.03;10013052;28;20043;-68
2022/01/18 18:08:15;;;;;;;9.65;5.85;;;;;;;5.80;100.00;103447.91;10021430;28;20462;-69
2022/01/18 18:13:12;;;;;;;14.07;6.15;;;;;;;5.89;100.00;103454.75;10021277;29;20075;-69
2022/01/18 18:18:09;;;;;;;16.80;7.72;;;;;;;5.82;100.00;103440.41;10019943;29;20106;-68
2022/01/18 18:23:07;;;;;;;12.82;7.60;;;;;;;5.79;100.00;103429.97;10014499;28;20067;-69
2022/01/18 18:28:04;;;;;;;15.10;8.52;;;;;;;5.80;100.00;103418.91;10021821;29;20039;-69
2022/01/18 18:33:01;;;;;;;12.38;7.57;;;;;;;5.77;100.00;103410.34;10013225;29;20387;-69
2022/01/18 18:38:01;;;;;;;16.20;8.63;;;;;;;5.85;100.00;103401.97;10014545;29;20040;-69
2022/01/18 18:48:17;;;;;;;17.48;7.82;;;;;;;5.82;100.00;103418.69;10017235;29;20048;-72
2022/01/18 18:53:14;;;;;;;16.40;7.40;;;;;;;5.85;100.00;103424.50;10011528;29;20072;-72
2022/01/18 19:03:26;;;;;;;15.43;7.97;;;;;;;5.86;100.00;103431.59;10009684;29;20064;-71
2022/01/18 19:08:26;;;;;;;11.27;7.05;;;;;;;5.80;100.00;103427.06;10004159;29;20052;-72
2022/01/18 19:13:29;;;;;;;17.00;6.60;;;;;;;5.72;100.00;103438.16;10005587;29;20056;-71
2022/01/18 19:18:26;;;;;;;13.82;5.50;;;;;;;5.81;100.00;103433.31;10040205;29;20416;-71
2022/01/18 19:23:25;;;;;;;12.82;5.95;;;;;;;5.83;100.00;103426.63;10042227;29;20110;-72
2022/01/18 19:28:24;;;;;;;14.27;5.43;;;;;;;5.68;100.00;103413.31;10035598;29;20064;-72
2022/01/18 19:33:26;;;;;;;11.90;5.45;;;;;;;5.64;100.00;103409.41;10074350;28;20518;-72
2022/01/18 19:38:22;;;;;;;12.52;5.57;;;;;;;5.68;100.00;103397.03;10022921;28;20095;-72
2022/01/18 19:43:19;;;;;;;14.65;5.38;;;;;;;5.68;100.00;103390.78;10073774;28;20054;-72
2022/01/18 19:48:15;;;;;;;12.13;5.60;;;;;;;5.63;100.00;103394.16;10015648;28;20044;-72
2022/01/18 19:53:13;;;;;;;11.77;4.82;;;;;;;5.70;100.00;103394.94;10037704;29;20134;-72
2022/01/18 19:58:12;;;;;;;14.00;5.80;;;;;;;5.58;100.00;103393.16;10036133;29;20043;-72
2022/01/18 20:03:11;;;;;;;17.02;6.70;;;;;;;5.58;100.00;103396.69;10006440;29;20052;-72
2022/01/18 20:08:08;;;;;;;13.82;5.40;;;;;;;5.60;100.00;103383.75;10012699;29;20059;-72
2022/01/18 20:13:05;;;;;;;15.73;6.53;;;;;;;5.62;100.00;103372.69;10032317;28;20052;-72
2022/01/18 20:18:02;;;;;;;18.45;7.93;;;;;;;5.63;100.00;103353.44;10032942;29;20099;-73
2022/01/18 20:22:58;;;;;;;19.88;9.70;;;;;;;5.46;100.00;103349.59;10039018;28;20052;-72
2022/01/18 20:27:55;;;;;;;21.13;10.80;;;;;;;5.39;100.00;103346.94;10035745;28;20122;-71
2022/01/18 20:32:52;;;;;;;18.77;10.25;;;;;;;5.43;100.00;103363.59;10021102;29;20044;-72
2022/01/18 20:37:51;;;;;;;21.33;10.98;;;;;;;5.34;100.00;103363.03;10035459;28;20458;-72
2022/01/18 20:48:07;;;;;;;21.77;9.48;;;;;;;5.48;100.00;103336.66;10016459;29;20095;-68
2022/01/18 20:53:05;;;;;;;17.33;8.40;;;;;;;5.25;100.00;103332.63;10011039;29;20107;-68
2022/01/18 20:58:02;;;;;;;19.10;8.65;;;;;;;5.17;100.00;103319.28;10008730;29;20068;-68
2022/01/18 21:02:59;;;;;;;16.27;9.07;;;;;;;5.20;100.00;103324.31;10022997;29;20079;-67
2022/01/18 21:08:00;;;;;;;19.98;10.43;;;;;;;5.30;100.00;103312.16;10008712;29;20082;-71
2022/01/18 21:12:57;;;;;;;20.88;10.18;;;;;;;5.23;100.00;103313.00;10026993;28;20580;-69
2022/01/18 21:17:56;;;;;;;21.17;9.10;;;;;;;5.33;100.00;103295.44;10023401;28;20056;-69
2022/01/18 21:22:53;;;;;;;15.60;7.03;;;;;;;5.32;100.00;103300.03;10034644;28;20123;-69
2022/01/18 21:28:07;;;;;;;19.77;8.23;;;;;;;5.26;100.00;103292.75;10016265;28;20055;-69
2022/01/18 21:33:07;;;;;;;16.88;7.95;;;;;;;5.20;100.00;103291.75;10024023;29;20055;-69
2022/01/18 21:38:04;;;;;;;18.92;7.80;;;;;;;5.13;100.00;103280.13;10005105;29;20048;-69
2022/01/18 21:43:01;;;;;;;15.48;8.23;;;;;;;5.13;100.00;103276.56;10028504;29;20082;-68
2022/01/18 21:47:57;;;;;;;18.30;8.60;;;;;;;5.15;100.00;103272.59;10019085;29;20120;-66
2022/01/18 21:52:54;;;;;;;17.92;8.93;;;;;;;5.07;100.00;103270.13;10051572;28;20090;-66
2022/01/18 21:57:52;;;;;;;19.88;9.57;;;;;;;5.01;100.00;103271.00;10040718;28;20585;-66
2022/01/18 22:02:48;;;;;;;21.63;9.40;;;;;;;5.00;100.00;103253.91;10039411;28;20094;-63
2022/01/18 22:07:47;;;;;;;25.85;9.88;;;;;;;5.08;100.00;103244.66;10053135;28;20595;-63
2022/01/18 22:12:46;;;;;;;25.75;10.00;;;;;;;5.13;100.00;103242.16;10057380;29;20126;-66
2022/01/18 22:17:43;;;;;;;23.55;11.00;;;;;;;5.06;100.00;103230.53;10056167;28;20039;-65
2022/01/18 22:22:41;;;;;;;31.17;11.73;;;;;;;5.10;100.00;103215.44;10038681;28;20158;-66
2022/01/18 22:27:40;;;;;;;25.20;11.50;;;;;;;5.13;100.00;103201.47;10041120;28;20517;-66
2022/01/18 22:32:36;;;;;;;25.45;10.70;;;;;;;5.02;100.00;103207.59;10042262;29;20122;-66
2022/01/18 22:37:35;;;;;;;20.77;9.85;;;;;;;5.01;100.00;103189.66;10043045;28;20561;-66
2022/01/18 22:42:33;;;;;;;20.40;10.43;;;;;;;4.94;100.00;103194.28;10039555;28;20052;-65
2022/01/18 22:47:29;;;;;;;20.15;8.75;;;;;;;4.89;100.00;103207.69;10046243;29;20063;-66
2022/01/18 22:52:29;;;;;;;20.35;9.38;;;;;;;4.95;100.00;103201.41;10071367;28;20131;-65
2022/01/18 22:57:27;;;;;;;17.30;8.90;;;;;;;4.75;100.00;103207.75;10044727;28;20074;-65
2022/01/18 23:02:23;;;;;;;29.33;12.50;;;;;;;4.85;100.00;103200.00;10065920;28;20071;-65
2022/01/18 23:07:20;;;;;;;26.25;12.90;;;;;;;4.89;100.00;103199.53;10048639;28;20094;-64
2022/01/18 23:12:17;;;;;;;27.50;13.73;;;;;;;4.84;100.00;103201.03;10061809;28;20043;-64
2022/01/18 23:17:13;;;;;;;31.23;14.38;;;;;;;4.82;100.00;103203.13;10047455;28;20086;-64
2022/01/18 23:22:10;;;;;;;29.60;14.48;;;;;;;4.75;100.00;103191.50;10057582;28;20053;-65
2022/01/18 23:27:09;;;;;;;27.08;12.23;;;;;;;4.65;100.00;103174.88;10043924;28;20047;-64
2022/01/18 23:32:06;;;;;;;34.90;17.30;;;;;;;4.70;100.00;103180.47;10039602;29;20540;-63
2022/01/18 23:37:03;;;;;;;30.55;15.68;;;;;;;4.85;100.00;103174.78;10035187;28;20489;-65
2022/01/18 23:41:59;;;;;;;31.15;18.15;;;;;;;4.87;100.00;103171.81;10075579;28;20086;-66
2022/01/18 23:46:56;;;;;;;38.63;19.17;;;;;;;4.79;100.00;103179.16;10036246;29;20082;-66
2022/01/18 23:51:53;;;;;;;37.13;20.25;;;;;;;4.63;100.00;103174.28;10074077;28;20051;-64
2022/01/18 23:56:49;;;;;;;40.90;23.00;;;;;;;4.66;100.00;103170.28;10041743;28;20051;-65
